CGXMF CYQS-CYXU
Flight info
| Callsign | CGXMF |
|---|---|
| Flight time | 0h 8m |
| Altitude | 5000 |
| Route | DCT |
| Aircraft | C152/L-SFG/C |
Departure
| Time | 2026-04-29 22:14 |
|---|---|
| Airport | St Thomas Municipal Airport (CYQS) |
Arrival
| Time | 2026-04-29 22:23 |
|---|---|
| Airport | London International Airport (CYXU) |
| Time | Latitude | Longitude | Altitude | Speed | Heading |
|---|---|---|---|---|---|
| 2026-04-29 22:07 | 42.77551 | -81.10301 | 774 ft | 0 kts | 80° |
| 2026-04-29 22:09 | 42.77544 | -81.10291 | 774 ft | 5 kts | 175° |
| 2026-04-29 22:10 | 42.77503 | -81.10260 | 773 ft | 4 kts | 139° |
| 2026-04-29 22:10 | 42.77461 | -81.10194 | 773 ft | 14 kts | 132° |
| 2026-04-29 22:10 | 42.77381 | -81.10120 | 771 ft | 14 kts | 190° |
| 2026-04-29 22:10 | 42.77342 | -81.10325 | 772 ft | 45 kts | 267° |
| 2026-04-29 22:11 | 42.77289 | -81.10904 | 799 ft | 75 kts | 278° |
| 2026-04-29 22:11 | 42.77250 | -81.11661 | 885 ft | 84 kts | 275° |
| 2026-04-29 22:11 | 42.77323 | -81.12422 | 996 ft | 80 kts | 314° |
| 2026-04-29 22:11 | 42.77808 | -81.12745 | 1057 ft | 83 kts | 342° |
| 2026-04-29 22:12 | 42.78356 | -81.13016 | 1126 ft | 85 kts | 340° |
| 2026-04-29 22:12 | 42.78945 | -81.13145 | 1200 ft | 87 kts | 7° |
| 2026-04-29 22:12 | 42.79555 | -81.13045 | 1244 ft | 89 kts | 1° |
| 2026-04-29 22:12 | 42.80179 | -81.13059 | 1282 ft | 87 kts | 359° |
| 2026-04-29 22:13 | 42.80755 | -81.13035 | 1343 ft | 79 kts | 4° |
| 2026-04-29 22:13 | 42.81293 | -81.13001 | 1352 ft | 78 kts | 358° |
| 2026-04-29 22:13 | 42.81846 | -81.13003 | 1358 ft | 82 kts | 360° |
| 2026-04-29 22:13 | 42.82414 | -81.12976 | 1343 ft | 82 kts | 358° |
| 2026-04-29 22:14 | 42.82974 | -81.12969 | 1342 ft | 79 kts | 359° |
| 2026-04-29 22:14 | 42.83523 | -81.12948 | 1330 ft | 81 kts | 0° |
| 2026-04-29 22:14 | 42.84077 | -81.13003 | 1363 ft | 76 kts | 352° |
| 2026-04-29 22:14 | 42.84601 | -81.13055 | 1385 ft | 75 kts | 352° |
| 2026-04-29 22:15 | 42.85144 | -81.13099 | 1413 ft | 82 kts | 353° |
| 2026-04-29 22:15 | 42.85736 | -81.13111 | 1478 ft | 86 kts | 359° |
| 2026-04-29 22:15 | 42.86323 | -81.13068 | 1582 ft | 84 kts | 356° |
| 2026-04-29 22:15 | 42.86919 | -81.13106 | 1577 ft | 89 kts | 354° |
| 2026-04-29 22:16 | 42.87561 | -81.13166 | 1580 ft | 93 kts | 354° |
| 2026-04-29 22:16 | 42.88180 | -81.13220 | 1617 ft | 80 kts | 353° |
| 2026-04-29 22:16 | 42.88723 | -81.13268 | 1493 ft | 80 kts | 353° |
| 2026-04-29 22:16 | 42.89251 | -81.13456 | 1365 ft | 81 kts | 328° |
| 2026-04-29 22:17 | 42.89756 | -81.13539 | 1300 ft | 74 kts | 7° |
| 2026-04-29 22:17 | 42.90310 | -81.13371 | 1129 ft | 90 kts | 11° |
| 2026-04-29 22:17 | 42.90825 | -81.13199 | 1261 ft | 72 kts | 17° |
| 2026-04-29 22:17 | 42.91265 | -81.12891 | 1305 ft | 70 kts | 24° |
| 2026-04-29 22:18 | 42.91702 | -81.12553 | 1345 ft | 66 kts | 22° |
| 2026-04-29 22:18 | 42.92123 | -81.12487 | 1351 ft | 66 kts | 360° |
| 2026-04-29 22:18 | 42.92610 | -81.12502 | 1375 ft | 76 kts | 359° |
| 2026-04-29 22:18 | 42.93160 | -81.12404 | 1442 ft | 85 kts | 9° |
| 2026-04-29 22:19 | 42.93767 | -81.12248 | 1459 ft | 89 kts | 4° |
| 2026-04-29 22:19 | 42.94362 | -81.12287 | 1533 ft | 84 kts | 356° |
| 2026-04-29 22:19 | 42.94976 | -81.12269 | 1489 ft | 90 kts | 358° |
| 2026-04-29 22:19 | 42.95586 | -81.12307 | 1570 ft | 89 kts | 356° |
| 2026-04-29 22:20 | 42.96224 | -81.12327 | 1584 ft | 92 kts | 359° |
| 2026-04-29 22:20 | 42.96869 | -81.12333 | 1584 ft | 96 kts | 358° |
| 2026-04-29 22:20 | 42.97538 | -81.12364 | 1595 ft | 95 kts | 2° |
| 2026-04-29 22:20 | 42.98167 | -81.12069 | 1599 ft | 98 kts | 22° |
| 2026-04-29 22:21 | 42.98753 | -81.11654 | 1608 ft | 83 kts | 20° |
| 2026-04-29 22:21 | 42.99256 | -81.11511 | 1637 ft | 77 kts | 1° |
| 2026-04-29 22:21 | 42.99809 | -81.11538 | 1680 ft | 76 kts | 346° |
| 2026-04-29 22:21 | 43.00306 | -81.11741 | 1574 ft | 73 kts | 345° |
| 2026-04-29 22:22 | 43.00785 | -81.12056 | 1442 ft | 84 kts | 334° |
| 2026-04-29 22:22 | 43.01267 | -81.12505 | 1331 ft | 84 kts | 324° |
| 2026-04-29 22:22 | 43.01679 | -81.12970 | 1121 ft | 68 kts | 324° |
| 2026-04-29 22:22 | 43.02021 | -81.13365 | 998 ft | 60 kts | 324° |
| 2026-04-29 22:23 | 43.02307 | -81.13704 | 926 ft | 50 kts | 322° |
| 2026-04-29 22:23 | 43.02536 | -81.13978 | 903 ft | 39 kts | 324° |
| 2026-04-29 22:23 | 43.02790 | -81.14291 | 944 ft | 60 kts | 321° |
| 2026-04-29 22:23 | 43.03157 | -81.14728 | 985 ft | 79 kts | 318° |
| 2026-04-29 22:24 | 43.03585 | -81.15246 | 1072 ft | 75 kts | 321° |
| 2026-04-29 22:24 | 43.03987 | -81.15717 | 1165 ft | 80 kts | 324° |
| 2026-04-29 22:24 | 43.04478 | -81.16027 | 1345 ft | 78 kts | 3° |
| 2026-04-29 22:24 | 43.04975 | -81.15691 | 1530 ft | 82 kts | 43° |
| 2026-04-29 22:25 | 43.04968 | -81.14835 | 1486 ft | 113 kts | 116° |
| 2026-04-29 22:25 | 43.04388 | -81.14124 | 1586 ft | 111 kts | 132° |
| 2026-04-29 22:25 | 43.03842 | -81.13383 | 1641 ft | 110 kts | 128° |
| 2026-04-29 22:25 | 43.03326 | -81.12589 | 1659 ft | 114 kts | 127° |
| 2026-04-29 22:26 | 43.02837 | -81.11743 | 1665 ft | 113 kts | 120° |
| 2026-04-29 22:26 | 43.02214 | -81.11300 | 1647 ft | 102 kts | 195° |
| 2026-04-29 22:26 | 43.01704 | -81.11826 | 1583 ft | 86 kts | 250° |
| 2026-04-29 22:26 | 43.01569 | -81.12601 | 1407 ft | 72 kts | 288° |
| 2026-04-29 22:27 | 43.01821 | -81.13126 | 1207 ft | 68 kts | 323° |
| 2026-04-29 22:27 | 43.02187 | -81.13572 | 1019 ft | 73 kts | 321° |
| 2026-04-29 22:27 | 43.02540 | -81.13995 | 898 ft | 57 kts | 324° |
| 2026-04-29 22:27 | 43.02822 | -81.14323 | 911 ft | 62 kts | 320° |
| 2026-04-29 22:28 | 43.03201 | -81.14797 | 937 ft | 85 kts | 319° |
| 2026-04-29 22:28 | 43.03664 | -81.15361 | 976 ft | 90 kts | 318° |
| 2026-04-29 22:28 | 43.04129 | -81.15923 | 1047 ft | 90 kts | 319° |
| 2026-04-29 22:28 | 43.04688 | -81.16022 | 1141 ft | 92 kts | 34° |
| 2026-04-29 22:29 | 43.04770 | -81.15429 | 1163 ft | 104 kts | 102° |
| 2026-04-29 22:29 | 43.04085 | -81.14498 | 1400 ft | 105 kts | 134° |
| 2026-04-29 22:29 | 43.03511 | -81.13810 | 1469 ft | 112 kts | 135° |
| 2026-04-29 22:29 | 43.02925 | -81.13097 | 1525 ft | 110 kts | 134° |
| 2026-04-29 22:30 | 43.02398 | -81.12336 | 1576 ft | 107 kts | 129° |
| 2026-04-29 22:30 | 43.01768 | -81.12359 | 1454 ft | 106 kts | 255° |
| 2026-04-29 22:30 | 43.01966 | -81.13199 | 1107 ft | 92 kts | 312° |
| 2026-04-29 22:30 | 43.02344 | -81.13736 | 932 ft | 65 kts | 322° |
| 2026-04-29 22:31 | 43.02626 | -81.14081 | 898 ft | 44 kts | 323° |
| 2026-04-29 22:31 | 43.02777 | -81.14272 | 901 ft | 15 kts | 312° |
| 2026-04-29 22:31 | 43.02863 | -81.14381 | 900 ft | 16 kts | 315° |
| 2026-04-29 22:31 | 43.02921 | -81.14471 | 898 ft | 11 kts | 306° |
| 2026-04-29 22:32 | 43.02944 | -81.14527 | 898 ft | 0 kts | 277° |
| 2026-04-29 22:32 | 43.02936 | -81.14585 | 897 ft | 9 kts | 229° |
| 2026-04-29 22:32 | 43.02920 | -81.14609 | 896 ft | 0 kts | 211° |
| 2026-04-29 22:33 | 43.02894 | -81.14645 | 896 ft | 9 kts | 221° |
| 2026-04-29 22:33 | 43.02862 | -81.14681 | 897 ft | 2 kts | 205° |
| 2026-04-29 22:33 | 43.02833 | -81.14697 | 897 ft | 5 kts | 206° |